Time;durP1;ratioP1;P1;durP2;ratioP2;P2;SDS_P1;SDS_P2;PMS_P1;PMS_P2;Temp;Humidity;BMP_temperature;BMP_pressure;BME280_temperature;BME280_humidity;BME280_pressure;Samples;Min_cycle;Max_cycle;Signal;HPM_P1;HPM_P2
2021/03/04 00:01:28;;;;;;;29.85;16.50;;;;;;;8.73;64.21;100599.34;3061708;29;20078;-76
2021/03/04 00:03:00;;;;;;;24.00;14.00;;;;;;;8.78;64.12;100596.31;3059261;29;20044;-76
2021/03/04 00:04:31;;;;;;;29.98;18.98;;;;;;;8.81;64.07;100601.38;3062052;29;20082;-76
2021/03/04 00:06:03;;;;;;;35.63;18.95;;;;;;;8.79;64.01;100597.97;3059939;29;20050;-76
2021/03/04 00:07:35;;;;;;;29.27;17.42;;;;;;;8.78;64.20;100593.66;3062763;29;20059;-76
2021/03/04 00:09:06;;;;;;;31.88;18.02;;;;;;;8.78;64.17;100596.31;3059436;29;20056;-77
2021/03/04 00:10:37;;;;;;;31.85;18.88;;;;;;;8.77;64.14;100594.63;3062013;29;20044;-76
2021/03/04 00:12:09;;;;;;;28.08;17.50;;;;;;;8.77;64.34;100594.63;3063436;29;20111;-76
2021/03/04 00:13:40;;;;;;;32.67;19.83;;;;;;;8.76;64.22;100590.25;3063215;29;20066;-77
2021/03/04 00:15:14;;;;;;;29.17;18.10;;;;;;;8.73;64.23;100587.81;3062581;29;20090;-77
2021/03/04 00:16:46;;;;;;;32.90;19.58;;;;;;;8.74;64.31;100589.50;3065438;29;20051;-76
2021/03/04 00:18:18;;;;;;;31.77;21.05;;;;;;;8.73;64.40;100590.47;3059541;29;20571;-76
2021/03/04 00:19:49;;;;;;;32.85;20.63;;;;;;;8.70;64.56;100586.25;3064555;29;20837;-76
2021/03/04 00:21:20;;;;;;;37.17;22.08;;;;;;;8.59;64.77;100586.22;3061953;29;20043;-77
2021/03/04 00:22:51;;;;;;;36.95;20.70;;;;;;;8.52;65.01;100585.84;3063488;29;20419;-76
2021/03/04 00:24:22;;;;;;;39.63;22.45;;;;;;;8.48;64.97;100580.88;3063792;29;20047;-76
2021/03/04 00:25:54;;;;;;;35.28;20.65;;;;;;;8.47;65.13;100589.78;3066250;29;20396;-77
2021/03/04 00:27:24;;;;;;;27.27;17.05;;;;;;;8.44;65.13;100588.22;3062818;29;20048;-76
2021/03/04 00:28:56;;;;;;;32.78;19.33;;;;;;;8.48;65.04;100584.41;3062660;29;20040;-76
2021/03/04 00:30:27;;;;;;;32.42;17.92;;;;;;;8.45;64.96;100579.25;3064498;29;20063;-77
2021/03/04 00:31:59;;;;;;;29.60;18.92;;;;;;;8.49;64.94;100574.56;3061184;29;20050;-76
2021/03/04 00:33:30;;;;;;;33.25;19.70;;;;;;;8.51;64.82;100576.16;3058675;29;20044;-77
2021/03/04 00:35:02;;;;;;;35.35;20.58;;;;;;;8.53;64.79;100579.53;3063958;29;20480;-77
2021/03/04 00:36:33;;;;;;;29.65;17.55;;;;;;;8.50;64.77;100581.59;3061514;29;20084;-77
2021/03/04 00:38:05;;;;;;;34.80;18.63;;;;;;;8.46;64.94;100570.31;3062625;29;20471;-76
2021/03/04 00:39:36;;;;;;;34.65;19.83;;;;;;;8.42;64.99;100571.50;3060015;29;20048;-76
2021/03/04 00:41:07;;;;;;;34.70;20.08;;;;;;;8.36;65.26;100574.63;3062255;29;20082;-76
2021/03/04 00:42:39;;;;;;;29.10;15.85;;;;;;;8.37;65.26;100571.84;3056650;28;20043;-77
2021/03/04 00:44:11;;;;;;;26.83;16.17;;;;;;;8.44;65.04;100566.91;3063887;29;20099;-76
2021/03/04 00:45:42;;;;;;;28.13;17.05;;;;;;;8.49;64.96;100562.13;3061276;29;20047;-77
2021/03/04 00:47:14;;;;;;;32.80;19.15;;;;;;;8.53;64.95;100563.56;3060808;29;20044;-76
2021/03/04 00:48:45;;;;;;;28.95;16.65;;;;;;;8.55;64.78;100555.44;3060734;28;20046;-76
2021/03/04 00:50:18;;;;;;;33.00;18.23;;;;;;;8.58;64.66;100564.06;3062756;29;20052;-76
2021/03/04 00:51:49;;;;;;;30.20;19.20;;;;;;;8.58;64.70;100549.88;3058617;28;20452;-76
2021/03/04 00:53:21;;;;;;;23.20;16.15;;;;;;;8.57;64.80;100554.38;3063039;29;20059;-77
2021/03/04 00:54:52;;;;;;;24.63;15.57;;;;;;;8.64;64.41;100545.88;3058132;28;20052;-76
2021/03/04 00:56:23;;;;;;;24.08;14.80;;;;;;;8.67;64.35;100546.50;3061167;29;20051;-77
2021/03/04 00:57:54;;;;;;;25.15;17.05;;;;;;;8.69;64.35;100543.72;3060528;28;20063;-76
2021/03/04 00:59:26;;;;;;;26.92;16.52;;;;;;;8.67;64.36;100541.16;3060603;29;20048;-76
2021/03/04 01:00:58;;;;;;;26.23;16.02;;;;;;;8.71;64.24;100539.09;3062309;28;20054;-77
2021/03/04 01:02:30;;;;;;;30.85;17.83;;;;;;;8.72;64.17;100530.13;3061905;29;20052;-76
2021/03/04 01:04:01;;;;;;;30.95;19.60;;;;;;;8.72;64.16;100540.78;3061664;28;20511;-77
2021/03/04 01:05:33;;;;;;;34.95;21.73;;;;;;;8.69;64.24;100535.72;3067390;29;20490;-77
2021/03/04 01:07:04;;;;;;;27.70;16.10;;;;;;;8.67;64.25;100529.66;3060727;28;20468;-77
2021/03/04 01:08:35;;;;;;;27.58;15.25;;;;;;;8.69;64.14;100519.72;3064829;29;20503;-77
2021/03/04 01:10:08;;;;;;;29.48;16.33;;;;;;;8.72;64.18;100517.66;3058766;28;20058;-77
2021/03/04 01:11:40;;;;;;;33.38;18.40;;;;;;;8.74;64.11;100530.88;3064068;29;20043;-77
2021/03/04 01:13:11;;;;;;;28.67;17.92;;;;;;;8.71;64.17;100518.63;3065017;28;20083;-76
2021/03/04 01:14:42;;;;;;;31.88;18.33;;;;;;;8.68;64.26;100518.03;3064367;29;20142;-77
2021/03/04 01:16:13;;;;;;;36.75;22.30;;;;;;;8.61;64.34;100520.31;3060630;29;20059;-76
2021/03/04 01:17:45;;;;;;;32.58;19.80;;;;;;;8.50;64.48;100515.81;3060074;29;20108;-77
2021/03/04 01:19:16;;;;;;;33.05;18.67;;;;;;;8.45;65.01;100515.31;3062664;28;20088;-77
2021/03/04 01:20:48;;;;;;;31.58;20.58;;;;;;;8.40;65.08;100522.81;3069888;28;20051;-77
2021/03/04 01:22:19;;;;;;;32.97;20.63;;;;;;;8.36;65.37;100510.69;3067446;29;20486;-76
2021/03/04 01:23:50;;;;;;;33.20;20.27;;;;;;;8.31;65.26;100508.38;3059271;28;20075;-77
2021/03/04 01:25:21;;;;;;;30.35;18.08;;;;;;;8.27;65.43;100512.25;3061486;29;20052;-76
2021/03/04 01:26:53;;;;;;;30.05;19.13;;;;;;;8.23;65.29;100514.31;3056938;29;20048;-77
2021/03/04 01:28:24;;;;;;;29.25;18.35;;;;;;;8.23;65.33;100506.31;3063611;29;20083;-77
2021/03/04 01:29:55;;;;;;;30.05;18.52;;;;;;;8.23;65.35;100508.97;3060095;28;20059;-77
2021/03/04 01:31:26;;;;;;;32.05;18.55;;;;;;;8.23;65.23;100511.63;3063966;29;20043;-77
2021/03/04 01:32:59;;;;;;;32.40;20.05;;;;;;;8.17;65.29;100509.47;3064636;28;20050;-77
2021/03/04 01:34:31;;;;;;;30.48;17.10;;;;;;;8.09;65.42;100510.03;3065019;29;20076;-77
2021/03/04 01:36:02;;;;;;;30.30;19.83;;;;;;;8.03;65.81;100507.03;3059337;28;20052;-76
2021/03/04 01:37:33;;;;;;;28.50;18.92;;;;;;;7.99;65.91;100508.19;3067440;29;20095;-77
2021/03/04 01:39:05;;;;;;;34.50;21.00;;;;;;;7.97;65.87;100509.16;3066427;28;20059;-76
2021/03/04 01:40:36;;;;;;;34.80;20.08;;;;;;;7.93;65.92;100505.06;3066668;29;20052;-77
2021/03/04 01:42:08;;;;;;;31.77;19.83;;;;;;;7.86;66.40;100503.78;3063414;28;20052;-77
2021/03/04 01:43:39;;;;;;;34.03;19.02;;;;;;;7.79;66.54;100505.22;3064319;29;20078;-77
2021/03/04 01:45:11;;;;;;;31.50;18.13;;;;;;;7.76;66.67;100502.78;3064137;29;20059;-77
2021/03/04 01:46:43;;;;;;;28.77;16.77;;;;;;;7.73;66.82;100497.72;3068758;29;20062;-76
2021/03/04 01:48:16;;;;;;;28.20;17.10;;;;;;;7.73;66.74;100503.88;3060599;28;20522;-77
2021/03/04 01:49:48;;;;;;;31.65;17.88;;;;;;;7.72;66.83;100501.34;3063942;29;20052;-76
2021/03/04 01:51:19;;;;;;;26.95;17.73;;;;;;;7.73;66.69;100498.56;3061128;28;20099;-77
2021/03/04 01:52:52;;;;;;;29.05;17.17;;;;;;;7.78;66.67;100490.22;3064100;29;20498;-77
2021/03/04 01:54:24;;;;;;;40.95;18.80;;;;;;;7.84;66.67;100495.06;3062854;29;20043;-76
2021/03/04 01:55:57;;;;;;;38.90;20.23;;;;;;;7.88;66.44;100491.22;3064797;29;20055;-77
2021/03/04 01:57:29;;;;;;;34.75;19.50;;;;;;;7.88;66.38;100483.25;3062220;29;20073;-77
2021/03/04 01:59:02;;;;;;;32.97;20.45;;;;;;;7.80;66.56;100485.63;3065795;29;20047;-76
2021/03/04 02:00:33;;;;;;;36.03;21.15;;;;;;;7.72;66.84;100485.38;3062687;29;20055;-77
2021/03/04 02:02:04;;;;;;;37.28;19.95;;;;;;;7.68;66.89;100482.09;3061652;29;20059;-77
2021/03/04 02:03:37;;;;;;;30.17;18.67;;;;;;;7.67;67.21;100490.19;3064389;28;20067;-77
2021/03/04 02:05:10;;;;;;;24.88;15.50;;;;;;;7.67;67.10;100482.19;3064573;29;20506;-76
2021/03/04 02:06:48;;;;;;;31.75;18.33;;;;;;;7.69;67.02;100482.94;3063596;29;20083;-77
2021/03/04 02:08:24;;;;;;;35.17;19.55;;;;;;;7.70;67.29;100482.81;3062082;29;20080;-76
2021/03/04 02:10:12;;;;;;;34.22;21.83;;;;;;;7.70;67.05;100476.66;3060891;28;20047;-76
2021/03/04 02:11:48;;;;;;;31.45;19.70;;;;;;;7.67;67.19;100471.56;3064829;29;20079;-77
2021/03/04 02:13:26;;;;;;;33.70;20.73;;;;;;;7.65;67.31;100480.50;3061583;29;20055;-77
2021/03/04 02:15:03;;;;;;;26.33;17.02;;;;;;;7.62;67.65;100470.09;3061662;28;20059;-77
2021/03/04 02:16:38;;;;;;;36.80;21.55;;;;;;;7.61;67.42;100463.06;3065106;29;20051;-77
2021/03/04 02:18:13;;;;;;;36.08;20.75;;;;;;;7.60;67.50;100474.69;3064450;28;20059;-77
2021/03/04 02:19:51;;;;;;;29.67;17.42;;;;;;;7.62;67.54;100466.56;3064198;29;20044;-76
2021/03/04 02:21:32;;;;;;;30.02;17.95;;;;;;;7.60;67.52;100465.88;3068620;28;20411;-77
2021/03/04 02:23:17;;;;;;;33.13;19.77;;;;;;;7.55;67.73;100466.22;3063425;29;20121;-76
2021/03/04 02:24:56;;;;;;;33.35;20.95;;;;;;;7.52;67.71;100461.09;3060911;29;20514;-77
2021/03/04 02:26:40;;;;;;;33.58;20.95;;;;;;;7.52;67.94;100460.25;3062272;29;20483;-76
2021/03/04 02:28:13;;;;;;;34.63;20.33;;;;;;;7.47;68.03;100449.94;3063058;29;20051;-76
2021/03/04 02:29:47;;;;;;;33.47;20.70;;;;;;;7.44;68.30;100455.50;3065320;29;20538;-76
2021/03/04 02:31:19;;;;;;;31.98;18.48;;;;;;;7.40;68.31;100454.03;3057684;29;20578;-76
2021/03/04 02:32:55;;;;;;;33.78;20.33;;;;;;;7.40;68.31;100456.69;3064169;29;20066;-77
2021/03/04 02:34:28;;;;;;;36.35;19.40;;;;;;;7.37;68.30;100457.78;3067974;29;20148;-76
2021/03/04 02:36:02;;;;;;;35.20;21.23;;;;;;;7.37;68.63;100455.13;3060861;28;20048;-76
2021/03/04 02:37:40;;;;;;;35.80;21.35;;;;;;;7.38;68.52;100454.16;3063038;29;21206;-77
2021/03/04 02:39:14;;;;;;;29.65;16.98;;;;;;;7.40;68.56;100451.38;3062665;28;20444;-76
2021/03/04 02:40:48;;;;;;;32.03;20.05;;;;;;;7.42;68.67;100454.78;3062141;29;20043;-76
2021/03/04 02:42:22;;;;;;;36.45;20.13;;;;;;;7.43;68.53;100453.81;3057495;28;20431;-76
2021/03/04 02:43:55;;;;;;;32.85;19.98;;;;;;;7.42;68.59;100444.13;3060346;29;20055;-76
2021/03/04 02:45:27;;;;;;;32.92;19.92;;;;;;;7.41;68.75;100450.41;3060915;28;20062;-76
2021/03/04 02:46:58;;;;;;;29.30;18.70;;;;;;;7.41;68.63;100448.63;3064899;29;20051;-77
2021/03/04 02:48:33;;;;;;;36.05;19.38;;;;;;;7.41;68.92;100450.41;3060602;28;20055;-76
2021/03/04 02:50:06;;;;;;;32.53;19.90;;;;;;;7.40;68.80;100449.59;3062245;29;20064;-77
2021/03/04 02:51:38;;;;;;;33.03;19.40;;;;;;;7.43;68.77;100448.50;3063334;28;20039;-76
2021/03/04 02:53:10;;;;;;;25.30;16.63;;;;;;;7.46;68.77;100448.28;3064816;29;20047;-76
2021/03/04 02:54:43;;;;;;;30.85;19.58;;;;;;;7.49;68.73;100438.25;3064075;28;20043;-77
2021/03/04 02:56:14;;;;;;;32.55;19.42;;;;;;;7.52;68.62;100436.28;3060264;29;20044;-77
2021/03/04 02:57:48;;;;;;;29.48;18.42;;;;;;;7.56;68.42;100437.78;3063024;28;20055;-76
2021/03/04 02:59:22;;;;;;;35.33;19.55;;;;;;;7.58;68.23;100435.84;3064191;29;20455;-77
2021/03/04 03:00:53;;;;;;;34.47;19.50;;;;;;;7.59;68.04;100434.91;3065266;29;20087;-77
2021/03/04 03:02:26;;;;;;;24.92;15.63;;;;;;;7.60;68.09;100425.94;3063194;29;20044;-76
2021/03/04 03:03:59;;;;;;;26.33;17.33;;;;;;;7.64;67.86;100420.28;3061210;29;20397;-76
2021/03/04 03:05:33;;;;;;;26.42;16.08;;;;;;;7.64;67.83;100420.28;3062860;29;20419;-76
2021/03/04 03:07:05;;;;;;;28.88;17.13;;;;;;;7.61;67.61;100420.50;3060555;28;20047;-76
2021/03/04 03:08:37;;;;;;;29.17;19.25;;;;;;;7.60;67.73;100424.13;3064334;29;20055;-77
2021/03/04 03:10:10;;;;;;;32.00;18.42;;;;;;;7.56;67.88;100427.13;3060508;28;20056;-76
2021/03/04 03:11:42;;;;;;;28.02;17.55;;;;;;;7.55;67.77;100420.97;3062889;29;20062;-76
2021/03/04 03:13:14;;;;;;;24.73;16.38;;;;;;;7.52;67.89;100423.84;3059831;28;20043;-76
2021/03/04 03:14:47;;;;;;;29.80;15.85;;;;;;;7.52;67.87;100418.53;3061298;29;20060;-76
2021/03/04 03:16:17;;;;;;;23.67;15.40;;;;;;;7.52;67.69;100418.53;3064689;29;20165;-76
2021/03/04 03:17:55;;;;;;;27.77;16.85;;;;;;;7.49;67.75;100421.41;3072350;28;20146;-77
2021/03/04 03:19:26;;;;;;;28.88;19.02;;;;;;;7.45;67.74;100427.97;3069816;29;20046;-77
2021/03/04 03:20:58;;;;;;;30.35;18.05;;;;;;;7.40;67.79;100417.66;3069880;28;20054;-75
2021/03/04 03:22:31;;;;;;;29.63;18.27;;;;;;;7.39;67.77;100423.94;3072164;29;20059;-76
2021/03/04 03:24:03;;;;;;;26.73;16.70;;;;;;;7.38;67.80;100422.25;3071184;29;20047;-76
2021/03/04 03:25:34;;;;;;;28.42;16.20;;;;;;;7.40;67.82;100422.13;3072207;29;20076;-76
2021/03/04 03:27:06;;;;;;;32.00;18.90;;;;;;;7.44;67.71;100421.78;3063293;28;20052;-76
2021/03/04 03:28:38;;;;;;;25.90;17.40;;;;;;;7.42;67.68;100421.03;3063647;29;20574;-76
2021/03/04 03:30:13;;;;;;;28.02;17.15;;;;;;;7.44;67.44;100418.28;3058671;28;20044;-76
2021/03/04 03:31:48;;;;;;;30.00;17.52;;;;;;;7.43;67.36;100416.56;3061149;29;20066;-76
2021/03/04 03:33:20;;;;;;;30.67;15.50;;;;;;;7.47;67.40;100412.69;3061177;29;20051;-76
2021/03/04 03:35:03;;;;;;;28.70;16.23;;;;;;;7.48;67.32;100425.03;3065445;29;20488;-76
2021/03/04 03:36:38;;;;;;;26.75;17.52;;;;;;;7.45;67.39;100412.00;3062058;28;20068;-76
2021/03/04 03:38:20;;;;;;;29.40;17.75;;;;;;;7.41;67.55;100416.69;3072587;29;20051;-77
2021/03/04 03:39:55;;;;;;;29.25;17.23;;;;;;;7.42;67.59;100409.56;3065426;28;20043;-77
2021/03/04 03:41:26;;;;;;;25.70;16.20;;;;;;;7.40;67.61;100406.16;3060227;29;20393;-76
2021/03/04 03:43:00;;;;;;;27.25;16.83;;;;;;;7.43;67.38;100408.59;3062736;28;20503;-76
2021/03/04 03:44:32;;;;;;;27.80;18.23;;;;;;;7.44;67.49;100397.00;3063873;29;20055;-76
2021/03/04 03:46:05;;;;;;;33.17;19.58;;;;;;;7.42;67.57;100398.91;3059350;28;20055;-76
2021/03/04 03:47:37;;;;;;;28.48;18.10;;;;;;;7.41;67.60;100394.56;3063476;29;20094;-76
2021/03/04 03:49:11;;;;;;;29.95;18.35;;;;;;;7.36;67.54;100391.41;3060311;28;20051;-76
2021/03/04 03:50:43;;;;;;;29.30;17.65;;;;;;;7.32;67.94;100394.28;3064779;29;20051;-76
2021/03/04 03:52:14;;;;;;;30.27;17.17;;;;;;;7.27;67.85;100396.47;3067148;28;20043;-76
2021/03/04 03:53:46;;;;;;;26.58;13.90;;;;;;;7.23;67.94;100389.66;3060774;29;20056;-76
2021/03/04 03:55:18;;;;;;;26.75;15.85;;;;;;;7.26;67.91;100397.41;3065740;29;20086;-76
2021/03/04 03:56:49;;;;;;;28.80;16.33;;;;;;;7.30;67.86;100390.88;3062252;28;20051;-76
2021/03/04 03:58:24;;;;;;;22.88;14.20;;;;;;;7.33;67.76;100390.66;3061763;29;20083;-77
2021/03/04 03:59:57;;;;;;;20.95;14.18;;;;;;;7.38;67.42;100387.66;3058876;29;20065;-76
2021/03/04 04:01:30;;;;;;;27.88;17.48;;;;;;;7.41;67.44;100391.91;3059593;29;20059;-76
2021/03/04 04:03:03;;;;;;;30.55;16.17;;;;;;;7.40;67.55;100391.06;3060035;28;20087;-77
2021/03/04 04:04:35;;;;;;;25.48;15.20;;;;;;;7.41;67.44;100386.56;3061335;29;20067;-76
2021/03/04 04:06:07;;;;;;;27.63;17.70;;;;;;;7.43;67.36;100382.81;3060795;28;20079;-76
2021/03/04 04:07:38;;;;;;;27.23;14.70;;;;;;;7.47;67.39;100383.44;3063117;29;20044;-77
2021/03/04 04:09:10;;;;;;;25.45;16.73;;;;;;;7.48;67.16;100383.34;3060944;28;20040;-76
2021/03/04 04:10:41;;;;;;;23.38;14.90;;;;;;;7.51;67.21;100376.94;3059227;29;20075;-76
2021/03/04 04:12:12;;;;;;;24.17;16.17;;;;;;;7.53;67.18;100380.34;3061872;29;20055;-76
2021/03/04 04:13:44;;;;;;;20.92;15.00;;;;;;;7.54;66.97;100373.19;3061238;29;20055;-76
2021/03/04 04:15:15;;;;;;;26.58;16.95;;;;;;;7.56;66.99;100368.59;3059670;29;20071;-76
2021/03/04 04:16:48;;;;;;;28.38;17.95;;;;;;;7.52;66.96;100372.44;3061503;29;20491;-76
2021/03/04 04:18:20;;;;;;;24.80;16.88;;;;;;;7.45;67.21;100377.41;3059847;28;20047;-76
2021/03/04 04:19:52;;;;;;;29.02;17.58;;;;;;;7.38;67.49;100376.16;3060882;29;20071;-76
2021/03/04 04:21:24;;;;;;;26.88;16.27;;;;;;;7.33;67.28;100374.72;3059743;28;20040;-75
2021/03/04 04:22:56;;;;;;;26.33;15.00;;;;;;;7.30;67.51;100366.94;3059369;29;20084;-76
2021/03/04 04:24:27;;;;;;;22.38;13.27;;;;;;;7.33;67.60;100368.53;3059327;29;20519;-76
2021/03/04 04:25:59;;;;;;;23.17;14.70;;;;;;;7.39;67.42;100368.09;3055678;29;20078;-76
2021/03/04 04:27:30;;;;;;;21.98;14.02;;;;;;;7.41;67.26;100365.28;3060081;28;20062;-76
2021/03/04 04:29:01;;;;;;;23.65;12.88;;;;;;;7.45;67.15;100361.44;3064949;29;20055;-77
2021/03/04 04:30:32;;;;;;;22.80;15.30;;;;;;;7.48;67.15;100370.03;3059556;28;20067;-76
2021/03/04 04:32:05;;;;;;;29.95;15.05;;;;;;;7.51;67.03;100363.63;3059175;29;20051;-76
2021/03/04 04:33:36;;;;;;;17.85;12.38;;;;;;;7.55;67.06;100359.78;3062707;28;20051;-76
2021/03/04 04:35:09;;;;;;;18.65;11.32;;;;;;;7.60;66.85;100360.25;3066419;29;20043;-77
2021/03/04 04:36:40;;;;;;;22.90;13.25;;;;;;;7.58;66.66;100356.03;3062069;28;20103;-76
2021/03/04 04:38:12;;;;;;;32.25;18.35;;;;;;;7.53;66.62;100366.16;3068612;29;20058;-76
2021/03/04 04:39:43;;;;;;;28.05;16.02;;;;;;;7.50;66.37;100364.59;3063702;28;20060;-76
2021/03/04 04:41:15;;;;;;;27.67;15.27;;;;;;;7.47;66.45;100359.50;3060605;29;20499;-76
2021/03/04 04:42:46;;;;;;;22.33;14.57;;;;;;;7.46;66.34;100360.50;3062185;28;20051;-76
2021/03/04 04:44:18;;;;;;;23.55;13.98;;;;;;;7.45;66.32;100356.13;3060819;29;20063;-76
2021/03/04 04:45:49;;;;;;;21.88;14.20;;;;;;;7.47;66.21;100359.50;3066421;28;20068;-76
2021/03/04 04:47:21;;;;;;;20.33;13.63;;;;;;;7.51;65.95;100360.97;3070180;29;20059;-76
2021/03/04 04:48:53;;;;;;;28.38;16.55;;;;;;;7.55;65.88;100356.25;3062238;28;20055;-76
2021/03/04 04:50:25;;;;;;;29.52;15.52;;;;;;;7.55;65.69;100350.94;3067328;29;20051;-76
2021/03/04 04:51:56;;;;;;;23.55;15.00;;;;;;;7.51;65.82;100350.31;3066001;28;20035;-77
2021/03/04 04:53:29;;;;;;;24.83;16.05;;;;;;;7.49;65.66;100352.25;3067154;29;20043;-77
2021/03/04 04:54:59;;;;;;;21.63;14.77;;;;;;;7.43;65.82;100350.06;3066309;29;20059;-77
2021/03/04 04:56:31;;;;;;;20.25;13.35;;;;;;;7.38;65.89;100345.09;3066066;29;20056;-77
2021/03/04 04:58:02;;;;;;;24.80;14.60;;;;;;;7.41;65.82;100352.00;3065970;28;20051;-77
2021/03/04 04:59:34;;;;;;;24.98;13.98;;;;;;;7.43;65.97;100347.41;3065128;29;20520;-78
2021/03/04 05:01:05;;;;;;;17.58;11.98;;;;;;;7.48;65.67;100351.41;3063788;28;20060;-78
2021/03/04 05:02:38;;;;;;;20.60;12.27;;;;;;;7.51;65.67;100345.00;3063911;29;20279;-77
2021/03/04 05:04:09;;;;;;;24.17;14.77;;;;;;;7.52;65.35;100336.06;3060449;29;20558;-76
2021/03/04 05:05:40;;;;;;;25.08;15.43;;;;;;;7.52;65.27;100336.06;3061807;29;20066;-77
2021/03/04 05:07:12;;;;;;;23.00;13.85;;;;;;;7.49;65.25;100337.16;3062655;29;20095;-77
2021/03/04 05:08:43;;;;;;;26.75;16.45;;;;;;;7.53;65.31;100331.56;3065238;29;20059;-77
2021/03/04 05:10:14;;;;;;;22.85;13.38;;;;;;;7.57;65.42;100327.72;3062929;28;20047;-77
2021/03/04 05:11:45;;;;;;;22.13;12.70;;;;;;;7.60;65.39;100328.34;3063285;29;20081;-77
2021/03/04 05:13:17;;;;;;;22.35;11.40;;;;;;;7.64;65.33;100328.94;3057710;28;20055;-77
2021/03/04 05:14:48;;;;;;;22.73;13.82;;;;;;;7.66;65.31;100324.34;3062801;29;20052;-77
2021/03/04 05:16:19;;;;;;;23.27;15.85;;;;;;;7.68;65.34;100334.88;3066554;29;20476;-77
2021/03/04 05:17:51;;;;;;;20.70;12.35;;;;;;;7.65;65.31;100323.50;3063247;28;20066;-77
2021/03/04 05:19:22;;;;;;;25.20;15.77;;;;;;;7.69;65.53;100320.59;3063213;29;20063;-77
2021/03/04 05:20:55;;;;;;;23.92;13.93;;;;;;;7.71;65.28;100324.00;3063432;28;20052;-77
2021/03/04 05:22:26;;;;;;;25.67;15.57;;;;;;;7.67;65.14;100318.06;3065411;29;20047;-77
2021/03/04 05:23:57;;;;;;;22.70;13.82;;;;;;;7.62;65.33;100315.75;3064141;28;20047;-77
2021/03/04 05:25:29;;;;;;;19.33;12.07;;;;;;;7.58;65.23;100308.97;3065237;29;20050;-77
2021/03/04 05:27:00;;;;;;;24.38;14.30;;;;;;;7.61;65.40;100322.06;3058444;28;20060;-77
2021/03/04 05:28:31;;;;;;;20.95;11.90;;;;;;;7.64;65.18;100312.97;3065017;29;20069;-77
2021/03/04 05:30:03;;;;;;;19.42;12.65;;;;;;;7.69;65.21;100313.47;3064411;28;20044;-77
2021/03/04 05:31:35;;;;;;;23.50;13.02;;;;;;;7.72;64.96;100307.06;3065487;29;20052;-77
2021/03/04 05:33:07;;;;;;;18.88;12.32;;;;;;;7.73;64.75;100308.75;3064058;28;20181;-77
2021/03/04 05:34:38;;;;;;;23.60;14.07;;;;;;;7.73;64.82;100306.09;3066210;29;20119;-77
2021/03/04 05:36:10;;;;;;;28.80;15.82;;;;;;;7.70;64.45;100306.34;3062930;28;20044;-77
2021/03/04 05:37:42;;;;;;;25.92;14.70;;;;;;;7.69;64.38;100307.28;3066872;29;20063;-77
2021/03/04 05:39:12;;;;;;;21.73;12.63;;;;;;;7.66;64.46;100303.06;3062888;28;20059;-77
2021/03/04 05:40:44;;;;;;;19.05;11.68;;;;;;;7.68;64.65;100300.28;3061108;29;20051;-77
2021/03/04 05:42:15;;;;;;;21.13;13.18;;;;;;;7.72;64.41;100305.25;3059160;29;20059;-77
2021/03/04 05:43:46;;;;;;;22.13;13.55;;;;;;;7.67;64.33;100302.09;3065099;29;20047;-77
2021/03/04 05:45:38;;;;;;;21.55;13.40;;;;;;;7.64;64.39;100305.00;3063284;28;20064;-77
2021/03/04 05:47:23;;;;;;;23.13;13.43;;;;;;;7.65;64.47;100304.88;3061052;29;20056;-77
2021/03/04 05:48:57;;;;;;;25.60;14.02;;;;;;;7.67;64.30;100298.56;3063962;29;20057;-77
2021/03/04 05:50:30;;;;;;;23.48;15.45;;;;;;;7.61;64.26;100299.91;3067141;29;20051;-77
2021/03/04 05:52:05;;;;;;;19.63;13.63;;;;;;;7.58;64.27;100306.31;3061592;28;20051;-77
2021/03/04 05:53:37;;;;;;;18.92;11.68;;;;;;;7.55;64.33;100306.56;3067570;29;20480;-77
2021/03/04 05:55:08;;;;;;;23.08;14.23;;;;;;;7.55;64.48;100301.25;3063992;28;20043;-77
2021/03/04 05:56:40;;;;;;;24.98;14.18;;;;;;;7.54;64.37;100312.00;3064321;29;20051;-77
2021/03/04 05:58:12;;;;;;;26.15;14.82;;;;;;;7.55;64.51;100303.91;3066273;28;20154;-77
2021/03/04 05:59:44;;;;;;;21.70;14.02;;;;;;;7.56;64.34;100308.25;3063289;29;20056;-77
2021/03/04 06:01:16;;;;;;;21.92;14.00;;;;;;;7.53;64.47;100300.53;3062835;28;20051;-77
2021/03/04 06:02:48;;;;;;;26.77;14.13;;;;;;;7.53;64.35;100297.00;3066590;28;20048;-77
2021/03/04 06:04:20;;;;;;;21.40;13.52;;;;;;;7.54;64.50;100312.84;3064193;29;20052;-77
2021/03/04 06:05:52;;;;;;;22.88;12.43;;;;;;;7.55;64.56;100306.56;3064589;29;20062;-77
2021/03/04 06:07:23;;;;;;;23.63;14.35;;;;;;;7.57;64.46;100304.63;3067364;29;20044;-77
2021/03/04 06:08:54;;;;;;;25.00;13.30;;;;;;;7.59;64.49;100305.34;3063258;28;20055;-77
2021/03/04 06:10:26;;;;;;;34.88;15.80;;;;;;;7.60;64.50;100301.72;3064854;29;20047;-77
2021/03/04 06:12:01;;;;;;;26.00;14.98;;;;;;;7.57;64.42;100307.28;3066165;28;20130;-77
2021/03/04 06:13:33;;;;;;;22.98;13.95;;;;;;;7.56;64.43;100302.09;3063886;29;20199;-77
2021/03/04 06:15:06;;;;;;;29.17;15.32;;;;;;;7.57;64.42;100312.59;3063581;29;20052;-77
2021/03/04 06:16:37;;;;;;;58.28;13.65;;;;;;;7.55;64.41;100313.69;3065794;29;20051;-77
2021/03/04 06:18:09;;;;;;;21.10;13.45;;;;;;;7.58;64.29;100305.47;3067424;28;20052;-77
2021/03/04 06:19:41;;;;;;;26.25;12.70;;;;;;;7.59;64.40;100302.69;3068076;29;20055;-77
2021/03/04 06:21:22;;;;;;;29.30;14.35;;;;;;;7.59;64.28;100305.34;3062410;29;20084;-77
2021/03/04 06:22:53;;;;;;;26.93;14.30;;;;;;;7.57;64.48;100301.13;3061656;29;20051;-77
2021/03/04 06:24:24;;;;;;;27.58;15.90;;;;;;;7.54;64.43;100312.84;3066750;28;20293;-77
2021/03/04 06:25:55;;;;;;;27.88;15.85;;;;;;;7.49;64.51;100304.38;3064072;29;20055;-77
2021/03/04 06:27:31;;;;;;;31.20;15.38;;;;;;;7.46;64.64;100304.63;3065936;28;20072;-77
2021/03/04 06:29:12;;;;;;;26.13;15.77;;;;;;;7.44;64.53;100307.38;3066940;29;20048;-77
2021/03/04 06:30:43;;;;;;;23.33;14.32;;;;;;;7.40;64.88;100299.75;3061675;29;20043;-77
2021/03/04 06:32:16;;;;;;;23.65;14.57;;;;;;;7.41;64.90;100302.31;3066326;29;20040;-76
2021/03/04 06:33:48;;;;;;;24.23;15.88;;;;;;;7.40;65.20;100299.75;3065388;28;20082;-77
2021/03/04 06:35:21;;;;;;;29.85;15.75;;;;;;;7.39;65.28;100304.25;3066178;29;20055;-77
2021/03/04 06:36:54;;;;;;;30.58;16.60;;;;;;;7.39;65.33;100301.59;3063340;28;20055;-77
2021/03/04 06:38:27;;;;;;;28.50;15.80;;;;;;;7.39;65.29;100298.06;3065469;29;20078;-77
2021/03/04 06:39:59;;;;;;;23.92;14.50;;;;;;;7.36;65.47;100301.81;3063529;28;20047;-77
2021/03/04 06:41:31;;;;;;;23.75;14.77;;;;;;;7.34;65.55;100301.94;3064541;29;20036;-77
2021/03/04 06:43:02;;;;;;;22.60;14.43;;;;;;;7.36;65.62;100296.50;3061090;29;20048;-77
2021/03/04 06:44:41;;;;;;;27.17;15.10;;;;;;;7.38;65.62;100297.22;3066879;29;20075;-77
2021/03/04 06:46:13;;;;;;;24.02;14.75;;;;;;;7.43;65.55;100302.19;3064600;29;20416;-77
2021/03/04 06:47:44;;;;;;;29.73;15.18;;;;;;;7.47;65.39;100301.84;3064111;29;20058;-77
2021/03/04 06:49:15;;;;;;;26.85;12.90;;;;;;;7.50;65.54;100298.09;3057131;28;20055;-77
2021/03/04 06:50:50;;;;;;;26.77;15.23;;;;;;;7.51;65.56;100299.78;3064517;29;20039;-77
2021/03/04 06:52:25;;;;;;;30.05;16.05;;;;;;;7.50;65.46;100306.06;3064145;29;20056;-77
2021/03/04 06:53:56;;;;;;;25.92;14.85;;;;;;;7.47;65.48;100300.97;3061286;29;20082;-77
2021/03/04 06:55:27;;;;;;;30.33;15.57;;;;;;;7.46;65.36;100299.31;3066019;29;20068;-77
2021/03/04 06:57:09;;;;;;;26.55;14.32;;;;;;;7.50;65.45;100306.06;3064297;29;20052;-77
2021/03/04 06:58:42;;;;;;;24.65;16.13;;;;;;;7.53;65.21;100299.66;3054933;29;20062;-77
2021/03/04 07:00:20;;;;;;;24.52;15.43;;;;;;;7.53;65.27;100292.53;3051006;29;20505;-77
2021/03/04 07:01:51;;;;;;;26.58;15.02;;;;;;;7.55;65.27;100300.38;3051717;29;20048;-77
2021/03/04 07:03:22;;;;;;;29.17;16.15;;;;;;;7.55;65.25;100293.28;3055250;29;20052;-77
2021/03/04 07:04:54;;;;;;;28.48;15.95;;;;;;;7.57;64.93;100301.13;3056577;29;20056;-77
2021/03/04 07:06:26;;;;;;;28.20;16.30;;;;;;;7.57;65.16;100301.13;3051912;29;20140;-77